Time;durP1;ratioP1;P1;durP2;ratioP2;P2;SDS_P1;SDS_P2;PMS_P1;PMS_P2;Temp;Humidity;BMP_temperature;BMP_pressure;BME280_temperature;BME280_humidity;BME280_pressure;Samples;Min_cycle;Max_cycle;Signal;HPM_P1;HPM_P2
2023/03/27 00:01:05;;;;;;;7.22;2.33;;;;;;;5.53;71.51;101416.94;5013835;28;20514;-67
2023/03/27 00:03:30;;;;;;;7.80;1.83;;;;;;;5.57;71.16;101423.19;5014378;28;20041;-67
2023/03/27 00:06:00;;;;;;;7.72;2.08;;;;;;;5.64;71.44;101427.84;5014330;28;20048;-67
2023/03/27 00:08:25;;;;;;;10.80;2.45;;;;;;;5.62;71.11;101426.91;5013953;28;20029;-67
2023/03/27 00:10:54;;;;;;;8.00;2.30;;;;;;;5.66;71.35;101436.69;5014182;28;20025;-67
2023/03/27 00:13:19;;;;;;;9.18;1.92;;;;;;;5.63;71.16;101441.78;5013897;28;20033;-67
2023/03/27 00:15:45;;;;;;;9.23;2.30;;;;;;;5.63;71.24;101454.00;5013980;28;20369;-67
2023/03/27 00:18:14;;;;;;;8.18;2.38;;;;;;;5.59;71.58;101450.34;4996168;28;20029;-67
2023/03/27 00:20:41;;;;;;;8.65;2.15;;;;;;;5.59;71.95;101446.84;5013713;28;20113;-67
2023/03/27 00:23:06;;;;;;;11.07;2.33;;;;;;;5.63;71.86;101460.13;5013755;28;20034;-67
2023/03/27 00:25:32;;;;;;;9.20;2.22;;;;;;;5.62;71.54;101462.72;5013579;28;20022;-67
2023/03/27 00:27:58;;;;;;;9.35;2.50;;;;;;;5.61;71.72;101468.75;5013473;28;20018;-67
2023/03/27 00:30:29;;;;;;;7.07;2.17;;;;;;;5.63;71.71;101480.22;5013645;28;20168;-68
2023/03/27 00:32:55;;;;;;;9.25;2.03;;;;;;;5.58;71.66;101474.78;5013893;28;20022;-67
2023/03/27 00:35:27;;;;;;;6.93;2.30;;;;;;;5.56;72.21;101471.19;5013773;28;20022;-67
2023/03/27 00:37:53;;;;;;;6.25;2.15;;;;;;;5.58;71.94;101473.91;5013863;28;20095;-68
2023/03/27 00:40:19;;;;;;;9.77;2.25;;;;;;;5.52;72.17;101478.06;5013713;28;20026;-67
2023/03/27 00:42:49;;;;;;;11.07;2.60;;;;;;;5.41;72.37;101468.84;5013483;28;20030;-67
2023/03/27 00:45:21;;;;;;;10.20;2.35;;;;;;;5.40;72.27;101480.19;4995928;28;20030;-67
2023/03/27 00:47:56;;;;;;;8.90;2.42;;;;;;;5.38;72.69;101484.44;5013065;28;20037;-68
2023/03/27 00:50:27;;;;;;;6.20;2.08;;;;;;;5.36;73.06;101486.13;5013488;28;20108;-68
2023/03/27 00:52:57;;;;;;;7.05;2.03;;;;;;;5.36;73.64;101493.09;4996259;28;20034;-68
2023/03/27 00:55:27;;;;;;;9.52;2.35;;;;;;;5.37;73.62;101487.91;5013545;28;20376;-67
2023/03/27 00:58:00;;;;;;;10.32;2.40;;;;;;;5.38;73.82;101494.03;5013514;28;20437;-67
2023/03/27 01:00:26;;;;;;;7.93;1.90;;;;;;;5.34;74.00;101507.84;5012992;28;20132;-68
2023/03/27 01:02:53;;;;;;;7.68;2.17;;;;;;;5.38;74.40;101512.38;4996203;28;20107;-67
2023/03/27 01:05:19;;;;;;;9.05;2.10;;;;;;;5.39;74.63;101512.44;5013633;28;20033;-68
2023/03/27 01:07:45;;;;;;;7.32;2.00;;;;;;;5.39;74.42;101519.41;5013152;28;20057;-68
2023/03/27 01:10:11;;;;;;;8.05;2.25;;;;;;;5.40;74.55;101527.34;5013226;28;20065;-68
2023/03/27 01:12:58;;;;;;;8.75;2.22;;;;;;;5.40;75.14;101524.72;5013088;28;20109;-68
2023/03/27 01:15:41;;;;;;;7.60;2.17;;;;;;;5.37;75.84;101521.97;5013256;28;20088;-69
2023/03/27 01:18:33;;;;;;;8.82;2.30;;;;;;;5.34;76.56;101531.41;4995433;28;20030;-69
2023/03/27 01:21:21;;;;;;;8.98;1.98;;;;;;;5.24;77.54;101527.50;5013194;28;20034;-69
2023/03/27 01:23:49;;;;;;;10.80;2.50;;;;;;;5.12;77.77;101540.97;5013211;28;20036;-69
2023/03/27 01:26:37;;;;;;;8.45;2.42;;;;;;;5.01;79.67;101537.88;5012827;28;20030;-70
2023/03/27 01:29:24;;;;;;;7.63;2.15;;;;;;;5.01;80.32;101527.41;5012973;28;20022;-70
2023/03/27 01:31:58;;;;;;;3.13;1.80;;;;;;;5.02;80.32;101531.81;5013109;28;20087;-70
2023/03/27 01:35:01;;;;;;;6.28;1.80;;;;;;;5.09;80.82;101532.06;4995358;28;20022;-70
2023/03/27 01:37:37;;;;;;;;;;;;;;;5.14;79.49;101541.94;4995722;28;20049;-70
2023/03/27 01:40:19;;;;;;;9.00;1.98;;;;;;;5.12;80.55;101537.47;5013281;28;19917;-70
2023/03/27 01:43:01;;;;;;;5.28;1.95;;;;;;;5.15;80.95;101542.84;5012868;28;20084;-70
2023/03/27 01:45:43;;;;;;;4.75;2.20;;;;;;;5.20;81.00;101544.81;5013185;28;20440;-70
2023/03/27 01:48:21;;;;;;;5.90;1.98;;;;;;;5.24;80.74;101557.22;5012946;28;20034;-70
2023/03/27 01:50:55;;;;;;;6.28;1.85;;;;;;;5.26;80.39;101550.31;5013103;28;20470;-69
2023/03/27 01:53:31;;;;;;;9.77;2.10;;;;;;;5.32;80.20;101564.53;4996111;28;20033;-70
2023/03/27 01:56:03;;;;;;;7.57;2.05;;;;;;;5.32;80.64;101567.16;5012877;28;20383;-69
2023/03/27 01:58:34;;;;;;;9.25;2.08;;;;;;;5.32;80.24;101562.81;5012937;28;20481;-69
2023/03/27 02:01:01;;;;;;;6.63;2.05;;;;;;;5.35;80.04;101562.03;4997995;28;20042;-69
2023/03/27 02:03:38;;;;;;;5.28;1.90;;;;;;;5.33;80.36;101563.69;4999162;28;20026;-69
2023/03/27 02:06:12;;;;;;;5.47;2.15;;;;;;;5.32;79.96;101567.16;5016478;28;20022;-69
2023/03/27 02:08:49;;;;;;;6.45;2.10;;;;;;;5.28;79.72;101564.41;5016309;28;20105;-69
2023/03/27 02:11:15;;;;;;;5.97;2.20;;;;;;;5.36;79.19;101569.09;4998934;28;20032;-69
2023/03/27 02:14:05;;;;;;;8.70;2.25;;;;;;;5.38;79.36;101572.66;5016103;28;20153;-69
2023/03/27 02:16:34;;;;;;;5.60;2.08;;;;;;;5.36;79.20;101575.22;4998622;28;20032;-70
2023/03/27 02:19:03;;;;;;;7.43;2.28;;;;;;;5.37;78.80;101589.22;5016118;28;20068;-69
2023/03/27 02:21:32;;;;;;;5.82;2.00;;;;;;;5.33;78.81;101590.78;5016353;28;20033;-69
2023/03/27 02:24:00;;;;;;;8.02;2.30;;;;;;;5.33;78.58;101598.66;5016078;28;20112;-69
2023/03/27 02:26:27;;;;;;;6.25;2.15;;;;;;;5.33;78.88;101601.28;5015966;28;20029;-69
2023/03/27 02:29:31;;;;;;;6.63;2.28;;;;;;;5.40;78.44;101600.72;5016067;28;20030;-69
2023/03/27 02:31:59;;;;;;;9.63;2.40;;;;;;;5.33;78.44;101603.00;4936307;29;20051;-69
2023/03/27 02:34:32;;;;;;;11.68;2.50;;;;;;;5.21;78.28;101596.38;5002007;28;20042;-68
2023/03/27 02:37:08;;;;;;;5.30;2.05;;;;;;;5.23;78.52;101605.22;5015890;28;20502;-69
2023/03/27 02:39:40;;;;;;;4.70;2.05;;;;;;;5.19;78.45;101613.78;5015777;28;20491;-69
2023/03/27 02:42:20;;;;;;;7.63;2.38;;;;;;;5.19;78.84;101608.53;5015751;28;20034;-69
2023/03/27 02:44:57;;;;;;;8.63;2.40;;;;;;;5.19;78.75;101612.88;5015641;28;20025;-68
2023/03/27 02:47:31;;;;;;;7.00;2.15;;;;;;;5.21;78.45;101616.44;5015831;28;20525;-68
2023/03/27 02:50:03;;;;;;;8.80;2.20;;;;;;;5.20;78.56;101612.94;5015727;28;20464;-69
2023/03/27 02:52:35;;;;;;;7.70;2.23;;;;;;;5.17;77.83;101620.66;5015633;28;20084;-68
2023/03/27 02:55:22;;;;;;;7.95;2.50;;;;;;;5.18;78.62;101616.31;5015577;28;20057;-68
2023/03/27 02:57:58;;;;;;;9.10;2.42;;;;;;;5.18;78.34;101622.47;5015353;28;20030;-68
2023/03/27 03:00:28;;;;;;;9.05;2.30;;;;;;;5.13;78.17;101626.56;5015186;28;20046;-68
2023/03/27 03:03:01;;;;;;;7.10;2.45;;;;;;;5.15;78.14;101629.28;5015502;28;20041;-67
2023/03/27 03:05:27;;;;;;;10.00;2.40;;;;;;;5.12;78.03;101627.41;5015328;28;20487;-68
2023/03/27 03:07:53;;;;;;;12.13;2.60;;;;;;;5.08;78.05;101630.72;5015292;28;20022;-67
2023/03/27 03:10:20;;;;;;;12.77;2.50;;;;;;;5.07;78.65;101635.91;5014955;28;20647;-68
2023/03/27 03:12:45;;;;;;;8.18;2.40;;;;;;;5.07;78.79;101639.41;5014800;28;20034;-67
2023/03/27 03:15:11;;;;;;;8.15;2.70;;;;;;;5.12;78.81;101643.13;5015127;28;20344;-67
2023/03/27 03:17:37;;;;;;;8.95;2.20;;;;;;;5.11;78.49;101646.59;4997501;28;20018;-68
2023/03/27 03:20:04;;;;;;;4.22;2.30;;;;;;;5.05;78.44;101658.50;5014949;28;20026;-67
2023/03/27 03:22:30;;;;;;;8.52;2.58;;;;;;;5.00;78.52;101664.41;4997294;28;20044;-68
2023/03/27 03:24:56;;;;;;;7.30;2.60;;;;;;;4.93;78.70;101662.34;5014978;28;20116;-67
2023/03/27 03:27:22;;;;;;;6.03;2.28;;;;;;;4.92;78.82;101663.16;5015157;28;20053;-68
2023/03/27 03:29:48;;;;;;;9.75;2.67;;;;;;;4.89;78.73;101670.00;5014713;28;20026;-68
2023/03/27 03:32:14;;;;;;;7.03;2.30;;;;;;;4.78;79.15;101672.09;5014793;28;20022;-67
2023/03/27 03:34:40;;;;;;;6.78;2.60;;;;;;;4.64;79.03;101657.47;4997132;28;20387;-68
2023/03/27 03:37:09;;;;;;;9.05;2.60;;;;;;;4.68;79.07;101676.00;5014564;28;20410;-68
2023/03/27 03:39:35;;;;;;;7.20;2.10;;;;;;;4.73;79.84;101677.13;5014587;28;20033;-67
2023/03/27 03:42:00;;;;;;;11.32;3.38;;;;;;;4.72;79.05;101683.19;5014485;28;20030;-68
2023/03/27 03:44:26;;;;;;;8.95;2.53;;;;;;;4.69;78.77;101683.03;5014574;28;20088;-68
2023/03/27 03:46:51;;;;;;;7.35;2.15;;;;;;;4.74;79.47;101689.38;5014417;28;20476;-68
2023/03/27 03:49:17;;;;;;;9.32;2.30;;;;;;;4.68;79.44;101694.34;5014417;28;20113;-68
2023/03/27 03:51:42;;;;;;;8.13;2.40;;;;;;;4.77;79.27;101705.25;4980784;28;20018;-67
2023/03/27 03:54:08;;;;;;;5.95;2.13;;;;;;;4.74;79.31;101699.84;5014567;28;20026;-68
2023/03/27 03:56:35;;;;;;;7.05;2.50;;;;;;;4.74;79.61;101702.47;5014136;28;20501;-68
2023/03/27 03:59:01;;;;;;;7.30;2.58;;;;;;;4.73;79.22;101707.63;5014208;28;20058;-68
2023/03/27 04:01:27;;;;;;;6.38;2.20;;;;;;;4.73;78.78;101716.38;5014065;28;20074;-68
2023/03/27 04:03:52;;;;;;;12.02;2.40;;;;;;;4.75;79.46;101717.38;5014106;28;20030;-68
2023/03/27 04:06:19;;;;;;;6.50;2.30;;;;;;;4.77;78.74;101720.94;5014352;28;20038;-68
2023/03/27 04:08:45;;;;;;;6.47;2.15;;;;;;;4.75;79.03;101713.81;4997031;28;20034;-68
2023/03/27 04:11:11;;;;;;;6.45;2.05;;;;;;;4.80;78.78;101725.44;5013926;28;20034;-68
2023/03/27 04:13:36;;;;;;;7.70;2.60;;;;;;;4.80;79.21;101727.13;5013944;28;20449;-68
2023/03/27 04:16:02;;;;;;;6.72;2.40;;;;;;;4.74;78.77;101728.66;4996362;28;20439;-68
2023/03/27 04:18:31;;;;;;;6.43;2.20;;;;;;;4.74;78.81;101738.22;4996516;28;20093;-68
2023/03/27 04:21:00;;;;;;;7.40;2.30;;;;;;;4.70;79.42;101736.28;5014006;28;20030;-68
2023/03/27 04:23:29;;;;;;;7.63;2.45;;;;;;;4.66;79.79;101724.75;5013299;28;20491;-68
2023/03/27 04:25:58;;;;;;;5.47;2.20;;;;;;;4.75;78.92;101745.25;4996119;28;20046;-68
2023/03/27 04:28:29;;;;;;;7.78;2.30;;;;;;;4.72;78.69;101750.34;4996937;28;20068;-68
2023/03/27 04:30:55;;;;;;;8.95;2.28;;;;;;;4.62;79.55;101751.59;5013874;28;20034;-68
2023/03/27 04:33:21;;;;;;;9.00;2.60;;;;;;;4.61;79.24;101752.44;5013631;28;20490;-68
2023/03/27 04:35:49;;;;;;;4.55;2.15;;;;;;;4.56;79.47;101753.94;4996222;28;20057;-68
2023/03/27 04:38:15;;;;;;;4.97;2.00;;;;;;;4.53;79.18;101765.13;5013617;28;20483;-68
2023/03/27 04:40:44;;;;;;;7.30;2.42;;;;;;;4.47;79.40;101767.47;5013664;28;20022;-68
2023/03/27 04:43:11;;;;;;;5.28;2.20;;;;;;;4.46;79.86;101775.25;5013349;28;20030;-68
2023/03/27 04:45:37;;;;;;;7.00;2.00;;;;;;;4.47;79.68;101782.28;5013526;28;20029;-68
2023/03/27 04:48:04;;;;;;;6.72;2.13;;;;;;;4.49;79.66;101783.22;4996063;28;20495;-68
2023/03/27 04:50:29;;;;;;;7.68;2.25;;;;;;;4.52;80.17;101773.81;4996042;28;20056;-68
2023/03/27 04:52:58;;;;;;;4.93;2.05;;;;;;;4.63;79.84;101790.06;5013355;28;20479;-68
2023/03/27 04:55:25;;;;;;;6.55;2.20;;;;;;;4.64;79.09;101785.72;5013443;28;20030;-68
2023/03/27 04:57:56;;;;;;;7.35;2.33;;;;;;;4.65;79.27;101787.53;4996086;28;20038;-68
2023/03/27 05:00:22;;;;;;;6.72;2.22;;;;;;;4.68;79.39;101796.44;5013004;28;20530;-68
2023/03/27 05:02:53;;;;;;;5.20;2.20;;;;;;;4.68;79.08;101793.81;4995971;28;20135;-68
2023/03/27 05:05:19;;;;;;;5.80;2.20;;;;;;;4.68;79.11;101795.53;5013560;28;20029;-68
2023/03/27 05:07:45;;;;;;;7.88;2.22;;;;;;;4.68;79.15;101799.03;5013295;28;20484;-68
2023/03/27 05:10:11;;;;;;;4.35;2.17;;;;;;;4.74;79.59;101806.28;5013480;28;20053;-68
2023/03/27 05:12:45;;;;;;;5.10;2.25;;;;;;;4.72;79.91;101811.47;5013191;28;20478;-68
2023/03/27 05:15:11;;;;;;;8.00;2.30;;;;;;;4.72;79.61;101821.03;5013187;28;20064;-68
2023/03/27 05:17:43;;;;;;;11.98;2.47;;;;;;;4.74;79.79;101816.78;5013078;28;20388;-68
2023/03/27 05:20:15;;;;;;;6.10;1.88;;;;;;;4.74;79.93;101822.91;5013307;28;20029;-68
2023/03/27 05:22:41;;;;;;;;;;;;;;;4.83;79.12;101822.47;5013465;28;20100;-69
2023/03/27 05:25:07;;;;;;;5.88;2.13;;;;;;;4.73;79.48;101833.31;5012905;28;20370;-68
2023/03/27 05:27:33;;;;;;;5.47;2.30;;;;;;;4.66;79.24;101831.19;4995557;28;20026;-68
2023/03/27 05:29:59;;;;;;;8.38;2.47;;;;;;;4.70;79.54;101846.22;5013000;28;20026;-69
2023/03/27 05:32:24;;;;;;;4.95;2.20;;;;;;;4.69;80.00;101836.59;5012997;28;20029;-69
2023/03/27 05:34:50;;;;;;;9.70;2.60;;;;;;;4.66;79.92;101839.94;5015454;28;20129;-69
2023/03/27 05:37:16;;;;;;;7.03;2.13;;;;;;;4.66;80.46;101846.91;4999407;28;20022;-69
2023/03/27 05:39:45;;;;;;;7.78;2.40;;;;;;;4.68;80.30;101846.16;4999519;28;20056;-69
2023/03/27 05:42:10;;;;;;;5.97;2.17;;;;;;;4.64;80.48;101840.69;5016899;28;20076;-69
2023/03/27 05:44:36;;;;;;;8.85;2.78;;;;;;;4.66;80.87;101847.78;5016733;28;20484;-69
2023/03/27 05:47:01;;;;;;;10.23;2.50;;;;;;;4.72;80.58;101853.34;4999517;28;20105;-69
2023/03/27 05:49:27;;;;;;;8.15;2.65;;;;;;;4.77;81.00;101854.47;5016670;28;20038;-69
2023/03/27 05:51:52;;;;;;;6.35;2.30;;;;;;;4.83;80.56;101858.22;5016636;28;20025;-69
2023/03/27 05:54:18;;;;;;;6.63;2.50;;;;;;;4.87;80.39;101868.03;5016638;28;20520;-69
2023/03/27 05:56:43;;;;;;;6.22;2.50;;;;;;;4.93;80.94;101868.34;5016905;28;20034;-69
2023/03/27 05:59:08;;;;;;;8.13;2.50;;;;;;;4.99;81.09;101868.66;5016310;28;20037;-69
2023/03/27 06:01:34;;;;;;;6.07;2.40;;;;;;;5.13;80.39;101875.47;5016206;28;20403;-69
2023/03/27 06:04:00;;;;;;;8.13;2.60;;;;;;;5.27;80.49;101878.78;4999158;28;20034;-69
2023/03/27 06:06:26;;;;;;;5.35;2.22;;;;;;;5.36;79.72;101887.09;5016412;28;20561;-69
2023/03/27 06:08:52;;;;;;;8.15;2.65;;;;;;;5.49;80.05;101894.72;4998980;28;20041;-69
2023/03/27 06:11:17;;;;;;;7.05;2.35;;;;;;;5.44;79.28;101897.94;5016391;28;20030;-69
2023/03/27 06:13:43;;;;;;;10.43;2.70;;;;;;;5.13;79.39;101908.63;5016486;28;20470;-69
2023/03/27 06:16:09;;;;;;;10.20;2.55;;;;;;;4.82;80.31;101914.94;5016394;28;20479;-69
2023/03/27 06:18:35;;;;;;;7.10;2.08;;;;;;;4.61;80.34;101919.06;4998565;28;20076;-68
2023/03/27 06:21:00;;;;;;;8.43;2.42;;;;;;;4.41;82.07;101903.25;5016305;28;20105;-69
2023/03/27 06:23:26;;;;;;;6.80;2.22;;;;;;;4.41;82.41;101895.38;5016156;28;20101;-70
2023/03/27 06:25:51;;;;;;;6.72;2.25;;;;;;;4.45;82.61;101912.13;5015890;28;20026;-69
2023/03/27 06:28:18;;;;;;;4.20;2.00;;;;;;;4.44;82.87;101913.84;4998364;28;20426;-69
2023/03/27 06:30:45;;;;;;;4.85;1.70;;;;;;;4.43;83.10;101906.81;5016239;28;20034;-69
2023/03/27 06:33:11;;;;;;;6.20;2.08;;;;;;;4.45;82.82;101918.28;5016260;28;20391;-69
2023/03/27 06:35:38;;;;;;;6.18;2.20;;;;;;;4.45;82.97;101922.59;5015855;28;20053;-69
2023/03/27 06:38:04;;;;;;;4.65;1.85;;;;;;;4.51;82.81;101920.31;5016032;28;20029;-69
2023/03/27 06:40:31;;;;;;;3.67;1.90;;;;;;;4.56;83.31;101920.56;5015902;28;20101;-69
2023/03/27 06:43:03;;;;;;;3.65;1.90;;;;;;;4.59;82.89;101921.63;5015918;28;20181;-69
2023/03/27 06:45:32;;;;;;;2.88;1.80;;;;;;;4.62;82.59;101924.38;5015134;28;20513;-69
2023/03/27 06:48:02;;;;;;;4.50;1.90;;;;;;;4.73;82.67;101925.84;5015770;28;20026;-69
2023/03/27 06:50:29;;;;;;;8.85;2.22;;;;;;;4.89;81.89;101932.78;5015939;28;20105;-69
2023/03/27 06:52:55;;;;;;;4.95;2.63;;;;;;;5.08;82.33;101931.06;5015831;28;20076;-70
2023/03/27 06:55:23;;;;;;;8.75;2.90;;;;;;;5.31;81.41;101938.38;5015255;28;20121;-70
2023/03/27 06:57:51;;;;;;;6.45;2.70;;;;;;;5.62;81.18;101948.63;5015585;28;20375;-70
2023/03/27 07:00:23;;;;;;;6.25;2.30;;;;;;;5.89;80.48;101948.16;5014871;28;20480;-70
2023/03/27 07:03:00;;;;;;;6.63;2.30;;;;;;;6.08;79.06;101948.25;4998138;28;20026;-70
2023/03/27 07:05:28;;;;;;;3.28;2.20;;;;;;;6.26;78.19;101954.31;5015567;28;20026;-70
2023/03/27 07:07:57;;;;;;;4.25;2.13;;;;;;;6.47;78.21;101959.66;5015484;28;20075;-70
2023/03/27 07:10:24;;;;;;;5.32;2.20;;;;;;;6.69;76.98;101968.50;5015129;28;20368;-71
2023/03/27 07:12:53;;;;;;;5.22;2.63;;;;;;;6.92;76.33;101966.88;5015235;28;20037;-71
2023/03/27 07:15:19;;;;;;;9.30;2.33;;;;;;;7.11;75.63;101969.47;5015168;28;20030;-71
2023/03/27 07:18:04;;;;;;;6.28;2.25;;;;;;;7.25;73.20;101973.56;5014919;28;20479;-71
2023/03/27 07:20:31;;;;;;;5.53;2.00;;;;;;;7.35;73.87;101979.22;5015135;28;20065;-71
2023/03/27 07:22:58;;;;;;;8.15;2.17;;;;;;;7.50;71.30;101979.88;5014880;28;20025;-71
2023/03/27 07:25:27;;;;;;;5.07;2.03;;;;;;;7.66;70.74;101984.00;5014590;28;20021;-71
2023/03/27 07:28:15;;;;;;;9.15;2.40;;;;;;;7.92;72.38;101992.94;5014724;28;20049;-71
2023/03/27 07:30:44;;;;;;;4.22;2.03;;;;;;;8.17;71.29;101979.91;5015122;28;20040;-72
2023/03/27 07:33:09;;;;;;;6.43;2.25;;;;;;;8.32;68.28;101981.38;5014722;28;20030;-72
2023/03/27 07:35:42;;;;;;;5.55;2.10;;;;;;;8.30;68.65;101989.19;5014963;28;20065;-72
2023/03/27 07:38:08;;;;;;;5.65;2.35;;;;;;;8.06;67.24;101996.16;5014912;28;20385;-71
2023/03/27 07:40:34;;;;;;;4.25;2.08;;;;;;;7.84;67.49;101989.16;5014677;28;20494;-72
2023/03/27 07:43:00;;;;;;;4.15;2.13;;;;;;;7.76;68.79;101994.97;5014443;28;20097;-71
2023/03/27 07:45:25;;;;;;;6.03;2.28;;;;;;;7.77;68.88;101999.41;5014617;28;20029;-71
2023/03/27 07:47:51;;;;;;;7.78;2.20;;;;;;;7.97;67.86;101997.59;5014744;28;20117;-72
2023/03/27 07:50:19;;;;;;;7.15;2.25;;;;;;;8.25;68.10;101999.53;5014485;28;20165;-72
2023/03/27 07:52:45;;;;;;;8.35;2.42;;;;;;;8.60;68.01;101993.84;5014596;28;20041;-72
2023/03/27 07:55:17;;;;;;;5.07;2.30;;;;;;;8.83;66.07;102002.63;4996688;28;20022;-72
2023/03/27 07:57:44;;;;;;;;;;;;;;;9.13;69.90;102001.06;5013785;28;20021;-72
2023/03/27 08:00:10;;;;;;;7.35;2.38;;;;;;;9.49;65.53;102001.44;5013854;28;19924;-72
2023/03/27 08:02:40;;;;;;;6.63;2.55;;;;;;;9.86;64.62;102005.28;5014588;28;20042;-72
2023/03/27 08:05:07;;;;;;;6.03;2.30;;;;;;;10.15;61.17;102002.66;5014357;28;20045;-72
2023/03/27 08:07:34;;;;;;;7.25;2.40;;;;;;;10.19;59.58;102001.91;5014414;28;20030;-72
2023/03/27 08:10:00;;;;;;;10.38;2.10;;;;;;;10.22;60.11;102009.94;5014325;28;20026;-72
2023/03/27 08:12:26;;;;;;;6.40;2.20;;;;;;;10.31;60.06;102009.34;5014088;28;20034;-72
2023/03/27 08:14:53;;;;;;;5.50;1.90;;;;;;;10.48;59.67;102011.63;5013966;28;20030;-72
2023/03/27 08:17:18;;;;;;;4.90;1.98;;;;;;;10.50;58.35;102017.00;5013989;28;20030;-73
2023/03/27 08:19:45;;;;;;;6.68;1.95;;;;;;;10.52;57.96;102017.91;5014081;28;20035;-72
2023/03/27 08:22:10;;;;;;;9.73;1.92;;;;;;;10.54;56.26;102016.22;5014105;28;20030;-72
2023/03/27 08:24:36;;;;;;;9.30;2.28;;;;;;;10.61;57.15;102019.94;5013790;28;20495;-77
2023/03/27 08:27:03;;;;;;;5.75;1.95;;;;;;;10.56;57.57;102027.72;5013052;28;20065;-72
2023/03/27 08:29:29;;;;;;;6.07;1.92;;;;;;;10.66;58.85;102028.88;4995962;28;20464;-75
2023/03/27 08:31:54;;;;;;;9.63;2.25;;;;;;;10.74;57.38;102022.09;5013969;28;20062;-76
2023/03/27 08:34:20;;;;;;;9.82;2.20;;;;;;;10.81;57.23;102026.72;5013689;28;20030;-75
2023/03/27 08:36:45;;;;;;;7.05;2.05;;;;;;;10.71;56.57;102035.22;5013893;28;20479;-75
2023/03/27 08:39:11;;;;;;;8.60;2.10;;;;;;;10.47;57.14;102044.22;5013640;28;20084;-74
2023/03/27 08:41:44;;;;;;;5.28;1.85;;;;;;;10.47;57.68;102036.28;5013887;28;20058;-75
2023/03/27 08:44:14;;;;;;;6.40;1.70;;;;;;;10.27;56.00;102037.41;4994470;28;20105;-73
2023/03/27 08:47:03;;;;;;;7.13;1.90;;;;;;;10.39;56.51;102040.44;4993913;28;20085;-73
2023/03/27 08:49:43;;;;;;;5.53;1.90;;;;;;;10.49;58.24;102046.88;4985656;28;20034;-72
2023/03/27 08:52:14;;;;;;;4.72;1.70;;;;;;;10.60;56.36;102044.59;4993885;28;20453;-73
2023/03/27 08:54:43;;;;;;;5.18;1.80;;;;;;;10.83;56.24;102043.50;4993733;28;20038;-73
2023/03/27 08:57:35;;;;;;;4.10;1.45;;;;;;;10.99;54.90;102042.19;5013294;28;20111;-74
2023/03/27 09:00:03;;;;;;;4.68;1.77;;;;;;;11.25;54.54;102050.84;5009105;28;20403;-71
2023/03/27 09:02:43;;;;;;;6.70;1.70;;;;;;;11.34;54.20;102050.19;4996045;28;20393;-70
2023/03/27 09:05:23;;;;;;;4.10;1.90;;;;;;;11.51;54.48;102059.47;5013674;28;20038;-70
2023/03/27 09:08:21;;;;;;;4.63;1.80;;;;;;;11.60;55.34;102064.13;5013630;28;20034;-69
2023/03/27 09:10:49;;;;;;;9.00;2.00;;;;;;;11.41;54.93;102060.09;4980918;28;20038;-71
2023/03/27 09:13:30;;;;;;;7.47;1.80;;;;;;;11.16;55.34;102069.13;5013310;28;20033;-73
2023/03/27 09:16:01;;;;;;;8.00;2.10;;;;;;;11.12;54.71;102068.13;5013231;28;20133;-71
2023/03/27 09:18:48;;;;;;;8.80;1.95;;;;;;;10.82;54.45;102062.88;4995738;28;20467;-70
2023/03/27 09:21:23;;;;;;;5.72;2.03;;;;;;;10.67;54.25;102068.59;5013465;28;20154;-71
2023/03/27 09:23:50;;;;;;;4.70;1.80;;;;;;;10.94;53.94;102068.50;5013137;28;20089;-72
2023/03/27 09:26:33;;;;;;;4.57;1.60;;;;;;;11.14;53.01;102077.03;5012925;28;20087;-72
2023/03/27 09:29:23;;;;;;;5.90;1.75;;;;;;;11.35;53.43;102068.78;5012885;28;20018;-73
2023/03/27 09:31:55;;;;;;;5.00;1.90;;;;;;;10.45;57.93;102100.53;5013191;28;20371;-72
2023/03/27 09:34:30;;;;;;;4.03;1.40;;;;;;;9.41;61.94;102110.19;5011495;28;20482;-72
2023/03/27 09:36:58;;;;;;;3.83;1.48;;;;;;;8.54;65.20;102128.88;4992681;28;20155;-70
2023/03/27 09:39:37;;;;;;;2.47;1.25;;;;;;;8.20;66.00;102114.31;4992210;28;20022;-72
2023/03/27 09:42:10;;;;;;;4.97;1.23;;;;;;;7.85;68.25;102111.97;5009868;28;20026;-72
2023/03/27 09:44:37;;;;;;;;;;;;;;;7.99;66.77;102124.88;5012305;28;20026;-72
2023/03/27 09:47:13;;;;;;;2.15;1.20;;;;;;;7.94;67.59;102123.78;5012354;28;19921;-70
2023/03/27 09:49:48;;;;;;;3.85;1.20;;;;;;;8.01;68.47;102119.69;5012754;28;20037;-70
2023/03/27 09:52:40;;;;;;;4.53;1.67;;;;;;;8.37;68.61;102122.94;5012973;28;20026;-70
2023/03/27 09:55:25;;;;;;;2.70;1.40;;;;;;;8.66;67.67;102124.09;5012531;28;20053;-71
2023/03/27 09:57:58;;;;;;;4.53;1.33;;;;;;;8.97;67.34;102120.91;5012989;28;20170;-71
2023/03/27 10:00:29;;;;;;;2.42;1.85;;;;;;;9.34;66.84;102131.91;5013939;28;20034;-70
2023/03/27 10:03:04;;;;;;;4.43;1.20;;;;;;;9.49;66.00;102129.81;5032564;28;20105;-70
2023/03/27 10:05:31;;;;;;;5.00;1.50;;;;;;;9.61;64.71;102135.53;5032327;28;20053;-72
2023/03/27 10:07:58;;;;;;;5.30;1.58;;;;;;;9.96;65.23;102134.09;5032280;28;20101;-71
2023/03/27 10:10:26;;;;;;;5.47;1.55;;;;;;;10.39;65.49;102124.09;5032196;28;20034;-71
2023/03/27 10:12:56;;;;;;;3.20;1.50;;;;;;;10.95;61.82;102135.53;5032459;28;20033;-71
2023/03/27 10:15:33;;;;;;;4.57;1.60;;;;;;;11.29;60.30;102127.72;5032016;28;20013;-71
2023/03/27 10:18:01;;;;;;;3.25;1.55;;;;;;;11.56;59.08;102131.06;5032129;28;20471;-70
2023/03/27 10:20:27;;;;;;;4.55;1.50;;;;;;;11.93;59.79;102130.34;5032300;28;20075;-70
2023/03/27 10:23:00;;;;;;;6.13;1.70;;;;;;;12.47;59.56;102122.88;5035759;28;20025;-70
2023/03/27 10:25:28;;;;;;;2.63;1.45;;;;;;;12.57;59.21;102118.66;5035745;28;20048;-70
2023/03/27 10:28:05;;;;;;;6.18;1.80;;;;;;;12.80;56.17;102119.16;5035649;28;20033;-72
2023/03/27 10:30:33;;;;;;;3.33;1.50;;;;;;;12.63;54.29;102121.44;5035655;28;20041;-71
2023/03/27 10:32:58;;;;;;;4.70;1.83;;;;;;;12.32;52.54;102126.91;5035506;28;20033;-70
2023/03/27 10:35:35;;;;;;;5.53;1.67;;;;;;;12.02;54.62;102142.06;5035479;28;20312;-72
2023/03/27 10:38:16;;;;;;;5.05;1.70;;;;;;;11.76;55.74;102132.50;5037427;28;20033;-72
2023/03/27 10:40:50;;;;;;;4.45;1.70;;;;;;;11.32;55.53;102134.84;5055503;28;20032;-71
2023/03/27 10:43:31;;;;;;;4.88;2.03;;;;;;;10.89;56.63;102128.31;5055487;28;20025;-72
2023/03/27 10:46:03;;;;;;;6.00;2.20;;;;;;;10.82;58.55;102128.06;5055637;28;20390;-71
2023/03/27 10:48:41;;;;;;;8.63;2.40;;;;;;;11.08;58.74;102126.19;5032722;28;20024;-70
2023/03/27 10:51:20;;;;;;;6.22;1.83;;;;;;;11.47;58.38;102134.38;5035393;28;20025;-70
2023/03/27 10:53:53;;;;;;;5.45;2.13;;;;;;;12.05;55.56;102140.38;5017580;28;20127;-70
2023/03/27 10:56:22;;;;;;;7.95;2.10;;;;;;;12.25;53.92;102161.22;5035101;28;20040;-69
2023/03/27 10:58:54;;;;;;;5.22;1.73;;;;;;;11.78;56.33;102170.53;5035360;28;20359;-69
2023/03/27 11:01:27;;;;;;;3.08;1.50;;;;;;;10.69;57.16;102187.59;5035166;28;20062;-69
2023/03/27 11:04:12;;;;;;;3.95;1.90;;;;;;;9.97;60.71;102188.69;5035464;28;20029;-69
2023/03/27 11:06:42;;;;;;;5.63;1.90;;;;;;;9.33;64.94;102207.50;5035034;28;20025;-70
2023/03/27 11:09:10;;;;;;;3.75;1.45;;;;;;;8.80;67.18;102203.69;5034903;28;20029;-70
2023/03/27 11:11:46;;;;;;;5.47;2.00;;;;;;;8.51;68.65;102200.78;5034906;28;20483;-70
2023/03/27 11:14:45;;;;;;;3.65;1.80;;;;;;;8.44;68.92;102198.75;5034610;28;20471;-70
2023/03/27 11:17:14;;;;;;;4.63;2.90;;;;;;;8.17;69.29;102203.72;5009397;28;20522;-69
2023/03/27 11:19:47;;;;;;;8.63;5.28;;;;;;;8.21;70.23;102207.38;5034614;28;20060;-69
2023/03/27 11:22:27;;;;;;;6.82;4.38;;;;;;;8.29;70.61;102203.34;5034557;28;20025;-69
2023/03/27 11:25:01;;;;;;;4.53;2.58;;;;;;;8.57;72.44;102205.41;5034368;28;20029;-69
2023/03/27 11:27:31;;;;;;;3.10;1.80;;;;;;;8.86;69.49;102208.31;5034799;28;20104;-69
2023/03/27 11:30:18;;;;;;;3.83;1.67;;;;;;;9.15;67.99;102205.06;5016672;28;20030;-69
2023/03/27 11:33:08;;;;;;;5.95;2.00;;;;;;;9.55;66.92;102198.66;5034316;28;20032;-69
2023/03/27 11:35:40;;;;;;;5.60;2.08;;;;;;;10.27;67.38;102199.44;5034485;28;20493;-69
2023/03/27 11:38:36;;;;;;;4.30;1.73;;;;;;;10.84;65.28;102198.69;5034412;28;20025;-70
2023/03/27 11:41:01;;;;;;;5.30;1.80;;;;;;;11.56;71.33;102199.91;5033122;28;20045;-70
2023/03/27 11:43:27;;;;;;;4.28;1.75;;;;;;;12.07;63.87;102191.63;5034218;28;20025;-70
2023/03/27 11:46:14;;;;;;;2.58;1.48;;;;;;;12.44;60.51;102197.00;5016688;28;20045;-70
2023/03/27 11:49:15;;;;;;;7.03;1.85;;;;;;;12.76;64.44;102191.56;5016579;28;20516;-69